sensor_id;sensor_type;location;lat;lon;timestamp;pressure;altitude;pressure_sealevel;temperature
69186;BMP280;56298;49.246;9.410;2024-03-29T00:00:35;97758.94;;;5.20
69186;BMP280;56298;49.246;9.410;2024-03-29T00:03:00;97754.47;;;5.12
69186;BMP280;56298;49.246;9.410;2024-03-29T00:05:25;97750.25;;;5.15
69186;BMP280;56298;49.246;9.410;2024-03-29T00:07:50;97739.25;;;5.07
69186;BMP280;56298;49.246;9.410;2024-03-29T00:10:16;97748.41;;;5.19
69186;BMP280;56298;49.246;9.410;2024-03-29T00:12:41;97736.19;;;5.09
69186;BMP280;56298;49.246;9.410;2024-03-29T00:15:06;97729.75;;;5.17
69186;BMP280;56298;49.246;9.410;2024-03-29T00:17:32;97723.09;;;5.15
69186;BMP280;56298;49.246;9.410;2024-03-29T00:19:57;97703.09;;;5.03
69186;BMP280;56298;49.246;9.410;2024-03-29T00:22:23;97704.50;;;4.97
69186;BMP280;56298;49.246;9.410;2024-03-29T00:24:48;97692.88;;;5.16
69186;BMP280;56298;49.246;9.410;2024-03-29T00:27:13;97685.94;;;5.19
69186;BMP280;56298;49.246;9.410;2024-03-29T00:29:38;97685.50;;;5.17
69186;BMP280;56298;49.246;9.410;2024-03-29T00:32:04;97678.88;;;5.34
69186;BMP280;56298;49.246;9.410;2024-03-29T00:34:29;97670.56;;;5.46
69186;BMP280;56298;49.246;9.410;2024-03-29T00:36:54;97665.22;;;5.50
69186;BMP280;56298;49.246;9.410;2024-03-29T00:39:20;97665.06;;;5.63
69186;BMP280;56298;49.246;9.410;2024-03-29T00:41:45;97654.31;;;5.70
69186;BMP280;56298;49.246;9.410;2024-03-29T00:44:10;97665.19;;;5.70
69186;BMP280;56298;49.246;9.410;2024-03-29T00:46:35;97668.72;;;5.74
69186;BMP280;56298;49.246;9.410;2024-03-29T00:49:01;97681.25;;;5.79
69186;BMP280;56298;49.246;9.410;2024-03-29T00:51:26;97682.53;;;5.85
69186;BMP280;56298;49.246;9.410;2024-03-29T00:53:51;97683.78;;;5.91
69186;BMP280;56298;49.246;9.410;2024-03-29T00:56:17;97692.81;;;5.95
69186;BMP280;56298;49.246;9.410;2024-03-29T00:58:42;97683.38;;;5.89
69186;BMP280;56298;49.246;9.410;2024-03-29T01:01:07;97677.13;;;5.88
69186;BMP280;56298;49.246;9.410;2024-03-29T01:03:32;97665.91;;;5.90
69186;BMP280;56298;49.246;9.410;2024-03-29T01:05:58;97663.00;;;5.79
69186;BMP280;56298;49.246;9.410;2024-03-29T01:08:23;97662.13;;;5.52
69186;BMP280;56298;49.246;9.410;2024-03-29T01:10:49;97657.63;;;5.40
69186;BMP280;56298;49.246;9.410;2024-03-29T01:13:14;97644.97;;;5.28
69186;BMP280;56298;49.246;9.410;2024-03-29T01:15:39;97638.31;;;5.45
69186;BMP280;56298;49.246;9.410;2024-03-29T01:18:04;97637.75;;;5.55
69186;BMP280;56298;49.246;9.410;2024-03-29T01:20:30;97646.19;;;5.73
69186;BMP280;56298;49.246;9.410;2024-03-29T01:22:55;97643.84;;;5.95
69186;BMP280;56298;49.246;9.410;2024-03-29T01:25:20;97628.75;;;5.98
69186;BMP280;56298;49.246;9.410;2024-03-29T01:27:46;97632.47;;;5.89
69186;BMP280;56298;49.246;9.410;2024-03-29T01:30:11;97642.00;;;5.99
69186;BMP280;56298;49.246;9.410;2024-03-29T01:32:37;97627.03;;;5.89
69186;BMP280;56298;49.246;9.410;2024-03-29T01:35:03;97624.75;;;5.68
69186;BMP280;56298;49.246;9.410;2024-03-29T01:37:29;97622.16;;;5.75
69186;BMP280;56298;49.246;9.410;2024-03-29T01:39:55;97640.03;;;5.77
69186;BMP280;56298;49.246;9.410;2024-03-29T01:42:21;97638.91;;;6.01
69186;BMP280;56298;49.246;9.410;2024-03-29T01:44:46;97637.78;;;6.06
69186;BMP280;56298;49.246;9.410;2024-03-29T01:47:12;97642.16;;;6.10
69186;BMP280;56298;49.246;9.410;2024-03-29T01:49:37;97641.78;;;6.12
69186;BMP280;56298;49.246;9.410;2024-03-29T01:52:03;97625.69;;;6.26
69186;BMP280;56298;49.246;9.410;2024-03-29T01:54:29;97637.72;;;6.25
69186;BMP280;56298;49.246;9.410;2024-03-29T01:56:54;97633.88;;;6.26
69186;BMP280;56298;49.246;9.410;2024-03-29T01:59:21;97620.13;;;6.19
69186;BMP280;56298;49.246;9.410;2024-03-29T02:01:46;97617.72;;;6.14
69186;BMP280;56298;49.246;9.410;2024-03-29T02:04:12;97609.03;;;6.05
69186;BMP280;56298;49.246;9.410;2024-03-29T02:06:38;97608.22;;;6.04
69186;BMP280;56298;49.246;9.410;2024-03-29T02:09:03;97597.63;;;5.95
69186;BMP280;56298;49.246;9.410;2024-03-29T02:11:29;97578.16;;;5.93
69186;BMP280;56298;49.246;9.410;2024-03-29T02:13:54;97582.69;;;5.85
69186;BMP280;56298;49.246;9.410;2024-03-29T02:16:19;97586.88;;;5.79
69186;BMP280;56298;49.246;9.410;2024-03-29T02:18:44;97586.00;;;5.75
69186;BMP280;56298;49.246;9.410;2024-03-29T02:21:10;97593.00;;;5.76
69186;BMP280;56298;49.246;9.410;2024-03-29T02:23:37;97582.16;;;6.03
69186;BMP280;56298;49.246;9.410;2024-03-29T02:26:03;97596.97;;;6.02
69186;BMP280;56298;49.246;9.410;2024-03-29T02:28:30;97593.50;;;6.05
69186;BMP280;56298;49.246;9.410;2024-03-29T02:30:55;97593.59;;;6.12
69186;BMP280;56298;49.246;9.410;2024-03-29T02:33:21;97594.56;;;6.24
69186;BMP280;56298;49.246;9.410;2024-03-29T02:35:46;97595.28;;;6.48
69186;BMP280;56298;49.246;9.410;2024-03-29T02:38:12;97599.47;;;6.41
69186;BMP280;56298;49.246;9.410;2024-03-29T02:40:37;97598.41;;;6.50
69186;BMP280;56298;49.246;9.410;2024-03-29T02:43:02;97604.06;;;6.37
69186;BMP280;56298;49.246;9.410;2024-03-29T02:45:27;97605.25;;;6.40
69186;BMP280;56298;49.246;9.410;2024-03-29T02:47:53;97592.91;;;6.46
69186;BMP280;56298;49.246;9.410;2024-03-29T02:50:18;97593.59;;;6.66
69186;BMP280;56298;49.246;9.410;2024-03-29T02:52:43;97599.09;;;6.74
69186;BMP280;56298;49.246;9.410;2024-03-29T02:55:09;97581.94;;;6.69
69186;BMP280;56298;49.246;9.410;2024-03-29T02:57:37;97606.94;;;6.48
69186;BMP280;56298;49.246;9.410;2024-03-29T03:00:06;97600.13;;;6.62
69186;BMP280;56298;49.246;9.410;2024-03-29T03:02:32;97608.47;;;6.76
69186;BMP280;56298;49.246;9.410;2024-03-29T03:04:57;97611.81;;;6.93
69186;BMP280;56298;49.246;9.410;2024-03-29T03:07:24;97604.72;;;6.84
69186;BMP280;56298;49.246;9.410;2024-03-29T03:10:08;97596.00;;;7.06
69186;BMP280;56298;49.246;9.410;2024-03-29T03:12:52;97600.63;;;7.39
69186;BMP280;56298;49.246;9.410;2024-03-29T03:15:17;97598.88;;;7.62
69186;BMP280;56298;49.246;9.410;2024-03-29T03:17:42;97607.56;;;7.78
69186;BMP280;56298;49.246;9.410;2024-03-29T03:20:08;97603.75;;;7.87
69186;BMP280;56298;49.246;9.410;2024-03-29T03:22:34;97615.91;;;7.93
69186;BMP280;56298;49.246;9.410;2024-03-29T03:24:59;97604.47;;;7.80
69186;BMP280;56298;49.246;9.410;2024-03-29T03:27:24;97604.34;;;7.65
69186;BMP280;56298;49.246;9.410;2024-03-29T03:29:50;97608.63;;;7.63
69186;BMP280;56298;49.246;9.410;2024-03-29T03:32:15;97598.66;;;7.82
69186;BMP280;56298;49.246;9.410;2024-03-29T03:34:40;97599.00;;;7.76
69186;BMP280;56298;49.246;9.410;2024-03-29T03:37:05;97620.13;;;7.83
69186;BMP280;56298;49.246;9.410;2024-03-29T03:39:31;97595.59;;;7.90
69186;BMP280;56298;49.246;9.410;2024-03-29T03:41:56;97563.66;;;7.94
69186;BMP280;56298;49.246;9.410;2024-03-29T03:44:21;97600.22;;;7.83
69186;BMP280;56298;49.246;9.410;2024-03-29T03:46:49;97607.91;;;7.73
69186;BMP280;56298;49.246;9.410;2024-03-29T03:49:14;97619.78;;;7.92
69186;BMP280;56298;49.246;9.410;2024-03-29T03:51:40;97648.75;;;8.07
69186;BMP280;56298;49.246;9.410;2024-03-29T03:54:05;97656.28;;;8.25
69186;BMP280;56298;49.246;9.410;2024-03-29T03:56:30;97642.13;;;8.08
69186;BMP280;56298;49.246;9.410;2024-03-29T03:58:55;97675.19;;;8.00
69186;BMP280;56298;49.246;9.410;2024-03-29T04:01:21;97716.03;;;7.89
69186;BMP280;56298;49.246;9.410;2024-03-29T04:03:46;97697.47;;;8.05
69186;BMP280;56298;49.246;9.410;2024-03-29T04:06:11;97688.22;;;8.17
69186;BMP280;56298;49.246;9.410;2024-03-29T04:08:36;97737.28;;;8.10
69186;BMP280;56298;49.246;9.410;2024-03-29T04:11:05;97670.63;;;8.11
69186;BMP280;56298;49.246;9.410;2024-03-29T04:13:30;97701.41;;;8.12
69186;BMP280;56298;49.246;9.410;2024-03-29T04:16:03;97669.00;;;8.03
69186;BMP280;56298;49.246;9.410;2024-03-29T04:18:28;97662.31;;;7.97
69186;BMP280;56298;49.246;9.410;2024-03-29T04:20:57;97653.44;;;8.11
69186;BMP280;56298;49.246;9.410;2024-03-29T04:23:22;97641.81;;;8.21
69186;BMP280;56298;49.246;9.410;2024-03-29T04:25:52;97645.06;;;8.38
69186;BMP280;56298;49.246;9.410;2024-03-29T04:28:17;97634.66;;;8.58
69186;BMP280;56298;49.246;9.410;2024-03-29T04:30:53;97621.81;;;8.69
69186;BMP280;56298;49.246;9.410;2024-03-29T04:33:19;97619.13;;;8.76
69186;BMP280;56298;49.246;9.410;2024-03-29T04:35:58;97604.72;;;8.87
69186;BMP280;56298;49.246;9.410;2024-03-29T04:38:25;97606.25;;;8.84
69186;BMP280;56298;49.246;9.410;2024-03-29T04:40:52;97600.06;;;8.95
69186;BMP280;56298;49.246;9.410;2024-03-29T04:43:18;97592.28;;;8.97
69186;BMP280;56298;49.246;9.410;2024-03-29T04:45:44;97582.09;;;8.90
69186;BMP280;56298;49.246;9.410;2024-03-29T04:48:10;97593.38;;;8.81
69186;BMP280;56298;49.246;9.410;2024-03-29T04:50:35;97587.09;;;8.66
69186;BMP280;56298;49.246;9.410;2024-03-29T04:53:00;97585.94;;;8.71
69186;BMP280;56298;49.246;9.410;2024-03-29T04:55:26;97589.84;;;8.70
69186;BMP280;56298;49.246;9.410;2024-03-29T04:57:52;97598.78;;;8.59
69186;BMP280;56298;49.246;9.410;2024-03-29T05:00:17;97609.63;;;8.52
69186;BMP280;56298;49.246;9.410;2024-03-29T05:02:42;97614.72;;;8.54
69186;BMP280;56298;49.246;9.410;2024-03-29T05:05:07;97622.47;;;8.44
69186;BMP280;56298;49.246;9.410;2024-03-29T05:07:33;97636.50;;;8.39
69186;BMP280;56298;49.246;9.410;2024-03-29T05:09:58;97637.28;;;8.40
69186;BMP280;56298;49.246;9.410;2024-03-29T05:12:25;97639.22;;;8.43
69186;BMP280;56298;49.246;9.410;2024-03-29T05:14:50;97635.75;;;8.46
69186;BMP280;56298;49.246;9.410;2024-03-29T05:17:15;97638.88;;;8.52
69186;BMP280;56298;49.246;9.410;2024-03-29T05:19:43;97639.34;;;8.61
69186;BMP280;56298;49.246;9.410;2024-03-29T05:22:08;97635.38;;;8.47
69186;BMP280;56298;49.246;9.410;2024-03-29T05:24:33;97623.34;;;8.63
69186;BMP280;56298;49.246;9.410;2024-03-29T05:26:58;97627.31;;;8.73
69186;BMP280;56298;49.246;9.410;2024-03-29T05:29:24;97611.75;;;8.81
69186;BMP280;56298;49.246;9.410;2024-03-29T05:31:49;97606.22;;;8.66
69186;BMP280;56298;49.246;9.410;2024-03-29T05:34:14;97595.69;;;8.72
69186;BMP280;56298;49.246;9.410;2024-03-29T05:36:40;97571.50;;;8.77
69186;BMP280;56298;49.246;9.410;2024-03-29T05:39:05;97564.53;;;8.87
69186;BMP280;56298;49.246;9.410;2024-03-29T05:41:31;97554.78;;;8.97
69186;BMP280;56298;49.246;9.410;2024-03-29T05:43:57;97549.31;;;9.04
69186;BMP280;56298;49.246;9.410;2024-03-29T05:46:22;97553.66;;;9.16
69186;BMP280;56298;49.246;9.410;2024-03-29T05:48:48;97565.38;;;9.28
69186;BMP280;56298;49.246;9.410;2024-03-29T05:51:13;97555.59;;;9.45
69186;BMP280;56298;49.246;9.410;2024-03-29T05:53:38;97561.09;;;9.63
69186;BMP280;56298;49.246;9.410;2024-03-29T05:56:04;97558.34;;;9.81
69186;BMP280;56298;49.246;9.410;2024-03-29T05:58:30;97563.00;;;9.92
69186;BMP280;56298;49.246;9.410;2024-03-29T06:00:55;97570.03;;;9.93
69186;BMP280;56298;49.246;9.410;2024-03-29T06:03:20;97576.31;;;10.04
69186;BMP280;56298;49.246;9.410;2024-03-29T06:05:45;97579.38;;;10.17
69186;BMP280;56298;49.246;9.410;2024-03-29T06:08:12;97582.47;;;10.30
69186;BMP280;56298;49.246;9.410;2024-03-29T06:10:38;97591.81;;;10.43
69186;BMP280;56298;49.246;9.410;2024-03-29T06:13:03;97598.47;;;10.53
69186;BMP280;56298;49.246;9.410;2024-03-29T06:15:52;97603.22;;;10.38
69186;BMP280;56298;49.246;9.410;2024-03-29T06:18:36;97584.78;;;10.42
69186;BMP280;56298;49.246;9.410;2024-03-29T06:21:02;97594.16;;;10.49
69186;BMP280;56298;49.246;9.410;2024-03-29T06:23:27;97610.63;;;10.49
69186;BMP280;56298;49.246;9.410;2024-03-29T06:25:52;97599.28;;;10.36
69186;BMP280;56298;49.246;9.410;2024-03-29T06:28:17;97618.09;;;10.34
69186;BMP280;56298;49.246;9.410;2024-03-29T06:30:43;97628.19;;;10.51
69186;BMP280;56298;49.246;9.410;2024-03-29T06:33:08;97585.94;;;10.49
69186;BMP280;56298;49.246;9.410;2024-03-29T06:35:33;97588.75;;;10.41
69186;BMP280;56298;49.246;9.410;2024-03-29T06:37:58;97572.28;;;10.34
69186;BMP280;56298;49.246;9.410;2024-03-29T06:40:24;97563.31;;;10.26
69186;BMP280;56298;49.246;9.410;2024-03-29T06:42:49;97613.03;;;10.32
69186;BMP280;56298;49.246;9.410;2024-03-29T06:45:14;97650.94;;;10.45
69186;BMP280;56298;49.246;9.410;2024-03-29T06:47:39;97648.91;;;10.60
69186;BMP280;56298;49.246;9.410;2024-03-29T06:50:05;97637.50;;;10.83
69186;BMP280;56298;49.246;9.410;2024-03-29T06:52:30;97623.75;;;10.90
69186;BMP280;56298;49.246;9.410;2024-03-29T06:54:56;97605.75;;;10.89
69186;BMP280;56298;49.246;9.410;2024-03-29T06:57:21;97596.88;;;10.67
69186;BMP280;56298;49.246;9.410;2024-03-29T06:59:50;97592.19;;;10.53
69186;BMP280;56298;49.246;9.410;2024-03-29T07:02:15;97607.06;;;10.52
69186;BMP280;56298;49.246;9.410;2024-03-29T07:04:40;97628.97;;;10.66
69186;BMP280;56298;49.246;9.410;2024-03-29T07:07:06;97631.63;;;10.84
69186;BMP280;56298;49.246;9.410;2024-03-29T07:09:34;97631.91;;;11.08
69186;BMP280;56298;49.246;9.410;2024-03-29T07:11:59;97622.38;;;11.27
69186;BMP280;56298;49.246;9.410;2024-03-29T07:14:24;97607.38;;;11.47
69186;BMP280;56298;49.246;9.410;2024-03-29T07:16:51;97613.06;;;11.67
69186;BMP280;56298;49.246;9.410;2024-03-29T07:19:17;97601.81;;;11.96
69186;BMP280;56298;49.246;9.410;2024-03-29T07:21:44;97597.78;;;12.08
69186;BMP280;56298;49.246;9.410;2024-03-29T07:24:09;97597.41;;;12.06
69186;BMP280;56298;49.246;9.410;2024-03-29T07:26:34;97588.19;;;12.23
69186;BMP280;56298;49.246;9.410;2024-03-29T07:29:00;97584.25;;;12.24
69186;BMP280;56298;49.246;9.410;2024-03-29T07:31:25;97579.16;;;12.23
69186;BMP280;56298;49.246;9.410;2024-03-29T07:33:51;97585.88;;;12.18
69186;BMP280;56298;49.246;9.410;2024-03-29T07:36:16;97597.66;;;12.19
69186;BMP280;56298;49.246;9.410;2024-03-29T07:38:42;97597.88;;;11.97
69186;BMP280;56298;49.246;9.410;2024-03-29T07:41:09;97597.56;;;11.88
69186;BMP280;56298;49.246;9.410;2024-03-29T07:43:39;97619.28;;;11.75
69186;BMP280;56298;49.246;9.410;2024-03-29T07:46:05;97626.69;;;11.78
69186;BMP280;56298;49.246;9.410;2024-03-29T07:48:33;97620.38;;;11.81
69186;BMP280;56298;49.246;9.410;2024-03-29T07:50:59;97611.41;;;11.77
69186;BMP280;56298;49.246;9.410;2024-03-29T07:53:24;97614.97;;;11.74
69186;BMP280;56298;49.246;9.410;2024-03-29T07:55:49;97618.88;;;11.80
69186;BMP280;56298;49.246;9.410;2024-03-29T07:58:14;97631.78;;;11.79
69186;BMP280;56298;49.246;9.410;2024-03-29T08:00:42;97628.56;;;11.88
69186;BMP280;56298;49.246;9.410;2024-03-29T08:03:08;97628.59;;;11.84
69186;BMP280;56298;49.246;9.410;2024-03-29T08:05:33;97638.09;;;11.80
69186;BMP280;56298;49.246;9.410;2024-03-29T08:07:59;97642.84;;;11.72
69186;BMP280;56298;49.246;9.410;2024-03-29T08:10:24;97647.13;;;11.73
69186;BMP280;56298;49.246;9.410;2024-03-29T08:12:50;97668.81;;;11.60
69186;BMP280;56298;49.246;9.410;2024-03-29T08:15:15;97673.22;;;11.43
69186;BMP280;56298;49.246;9.410;2024-03-29T08:17:43;97678.84;;;11.25
69186;BMP280;56298;49.246;9.410;2024-03-29T08:20:08;97677.31;;;11.13
69186;BMP280;56298;49.246;9.410;2024-03-29T08:22:33;97680.91;;;10.95
69186;BMP280;56298;49.246;9.410;2024-03-29T08:24:59;97689.19;;;10.84
69186;BMP280;56298;49.246;9.410;2024-03-29T08:27:28;97701.00;;;10.67
69186;BMP280;56298;49.246;9.410;2024-03-29T08:29:53;97713.94;;;10.59
69186;BMP280;56298;49.246;9.410;2024-03-29T08:32:19;97725.69;;;10.52
69186;BMP280;56298;49.246;9.410;2024-03-29T08:34:44;97721.78;;;10.35
69186;BMP280;56298;49.246;9.410;2024-03-29T08:37:09;97711.25;;;10.19
69186;BMP280;56298;49.246;9.410;2024-03-29T08:39:35;97720.63;;;10.04
69186;BMP280;56298;49.246;9.410;2024-03-29T08:42:02;97744.06;;;9.86
69186;BMP280;56298;49.246;9.410;2024-03-29T08:44:33;97752.63;;;9.67
69186;BMP280;56298;49.246;9.410;2024-03-29T08:46:59;97765.09;;;9.53
69186;BMP280;56298;49.246;9.410;2024-03-29T08:49:29;97786.94;;;9.39
69186;BMP280;56298;49.246;9.410;2024-03-29T08:51:56;97795.84;;;9.25
69186;BMP280;56298;49.246;9.410;2024-03-29T08:54:21;97793.81;;;9.07
69186;BMP280;56298;49.246;9.410;2024-03-29T08:56:47;97791.47;;;9.09
69186;BMP280;56298;49.246;9.410;2024-03-29T08:59:12;97782.44;;;9.05
69186;BMP280;56298;49.246;9.410;2024-03-29T09:01:42;97784.00;;;9.02
69186;BMP280;56298;49.246;9.410;2024-03-29T09:04:07;97802.84;;;9.11
69186;BMP280;56298;49.246;9.410;2024-03-29T09:06:36;97810.22;;;9.14
69186;BMP280;56298;49.246;9.410;2024-03-29T09:09:02;97811.13;;;9.29
69186;BMP280;56298;49.246;9.410;2024-03-29T09:11:28;97807.59;;;9.32
69186;BMP280;56298;49.246;9.410;2024-03-29T09:13:53;97819.38;;;9.37
69186;BMP280;56298;49.246;9.410;2024-03-29T09:16:19;97826.84;;;9.47
69186;BMP280;56298;49.246;9.410;2024-03-29T09:18:46;97819.81;;;9.53
69186;BMP280;56298;49.246;9.410;2024-03-29T09:21:11;97822.16;;;9.55
69186;BMP280;56298;49.246;9.410;2024-03-29T09:23:36;97825.34;;;9.68
69186;BMP280;56298;49.246;9.410;2024-03-29T09:26:04;97819.91;;;9.75
69186;BMP280;56298;49.246;9.410;2024-03-29T09:28:29;97830.47;;;9.84
69186;BMP280;56298;49.246;9.410;2024-03-29T09:31:00;97828.91;;;9.90
69186;BMP280;56298;49.246;9.410;2024-03-29T09:33:25;97834.41;;;9.86
69186;BMP280;56298;49.246;9.410;2024-03-29T09:35:51;97841.47;;;10.02
69186;BMP280;56298;49.246;9.410;2024-03-29T09:38:16;97832.16;;;10.14
69186;BMP280;56298;49.246;9.410;2024-03-29T09:40:43;97834.91;;;10.32
69186;BMP280;56298;49.246;9.410;2024-03-29T09:43:09;97821.56;;;10.34
69186;BMP280;56298;49.246;9.410;2024-03-29T09:45:35;97822.75;;;10.22
69186;BMP280;56298;49.246;9.410;2024-03-29T09:48:05;97818.84;;;10.23
69186;BMP280;56298;49.246;9.410;2024-03-29T09:50:32;97814.53;;;10.48
69186;BMP280;56298;49.246;9.410;2024-03-29T09:52:58;97815.34;;;10.48
69186;BMP280;56298;49.246;9.410;2024-03-29T09:55:24;97811.00;;;10.51
69186;BMP280;56298;49.246;9.410;2024-03-29T09:57:50;97811.41;;;10.46
69186;BMP280;56298;49.246;9.410;2024-03-29T10:00:16;97798.47;;;10.68
69186;BMP280;56298;49.246;9.410;2024-03-29T10:02:43;97796.91;;;10.81
69186;BMP280;56298;49.246;9.410;2024-03-29T10:05:11;97795.69;;;10.93
69186;BMP280;56298;49.246;9.410;2024-03-29T10:07:38;97794.13;;;11.07
69186;BMP280;56298;49.246;9.410;2024-03-29T10:10:04;97776.06;;;11.17
69186;BMP280;56298;49.246;9.410;2024-03-29T10:12:29;97761.56;;;11.16
69186;BMP280;56298;49.246;9.410;2024-03-29T10:14:56;97745.06;;;11.23
69186;BMP280;56298;49.246;9.410;2024-03-29T10:17:30;97737.66;;;11.17
69186;BMP280;56298;49.246;9.410;2024-03-29T10:20:00;97745.00;;;11.34
69186;BMP280;56298;49.246;9.410;2024-03-29T10:22:25;97746.88;;;11.55
69186;BMP280;56298;49.246;9.410;2024-03-29T10:24:50;97744.75;;;11.78
69186;BMP280;56298;49.246;9.410;2024-03-29T10:27:15;97751.22;;;12.06
69186;BMP280;56298;49.246;9.410;2024-03-29T10:29:41;97750.34;;;12.20
69186;BMP280;56298;49.246;9.410;2024-03-29T10:32:06;97758.84;;;12.33
69186;BMP280;56298;49.246;9.410;2024-03-29T10:34:31;97740.63;;;12.53
69186;BMP280;56298;49.246;9.410;2024-03-29T10:37:02;97732.38;;;12.88
69186;BMP280;56298;49.246;9.410;2024-03-29T10:39:29;97728.22;;;13.07
69186;BMP280;56298;49.246;9.410;2024-03-29T10:41:56;97719.19;;;13.38
69186;BMP280;56298;49.246;9.410;2024-03-29T10:44:22;97718.25;;;13.48
69186;BMP280;56298;49.246;9.410;2024-03-29T10:46:50;97729.13;;;13.28
69186;BMP280;56298;49.246;9.410;2024-03-29T10:49:15;97737.56;;;13.14
69186;BMP280;56298;49.246;9.410;2024-03-29T10:51:42;97743.47;;;13.16
69186;BMP280;56298;49.246;9.410;2024-03-29T10:54:08;97748.38;;;12.97
69186;BMP280;56298;49.246;9.410;2024-03-29T10:56:35;97753.22;;;12.89
69186;BMP280;56298;49.246;9.410;2024-03-29T10:59:06;97746.75;;;13.03
69186;BMP280;56298;49.246;9.410;2024-03-29T11:01:35;97744.38;;;13.36
69186;BMP280;56298;49.246;9.410;2024-03-29T11:04:08;97738.41;;;13.69
69186;BMP280;56298;49.246;9.410;2024-03-29T11:06:36;97725.94;;;13.85
69186;BMP280;56298;49.246;9.410;2024-03-29T11:09:04;97719.25;;;13.86
69186;BMP280;56298;49.246;9.410;2024-03-29T11:11:31;97709.06;;;14.06
69186;BMP280;56298;49.246;9.410;2024-03-29T11:14:16;97693.41;;;14.44
69186;BMP280;56298;49.246;9.410;2024-03-29T11:16:43;97698.44;;;14.69
69186;BMP280;56298;49.246;9.410;2024-03-29T11:19:12;97688.66;;;15.21
69186;BMP280;56298;49.246;9.410;2024-03-29T11:21:38;97684.13;;;15.48
69186;BMP280;56298;49.246;9.410;2024-03-29T11:24:04;97687.16;;;15.37
69186;BMP280;56298;49.246;9.410;2024-03-29T11:26:30;97688.25;;;15.39
69186;BMP280;56298;49.246;9.410;2024-03-29T11:28:55;97689.53;;;15.18
69186;BMP280;56298;49.246;9.410;2024-03-29T11:31:23;97700.06;;;15.23
69186;BMP280;56298;49.246;9.410;2024-03-29T11:33:49;97695.75;;;15.22
69186;BMP280;56298;49.246;9.410;2024-03-29T11:36:22;97693.34;;;15.24
69186;BMP280;56298;49.246;9.410;2024-03-29T11:38:50;97698.31;;;14.96
69186;BMP280;56298;49.246;9.410;2024-03-29T11:41:17;97695.59;;;14.93
69186;BMP280;56298;49.246;9.410;2024-03-29T11:43:43;97701.88;;;14.77
69186;BMP280;56298;49.246;9.410;2024-03-29T11:46:11;97688.31;;;14.62
69186;BMP280;56298;49.246;9.410;2024-03-29T11:48:37;97675.63;;;14.68
69186;BMP280;56298;49.246;9.410;2024-03-29T11:51:05;97676.53;;;14.62
69186;BMP280;56298;49.246;9.410;2024-03-29T11:53:31;97670.00;;;14.92
69186;BMP280;56298;49.246;9.410;2024-03-29T11:55:58;97666.94;;;14.70
69186;BMP280;56298;49.246;9.410;2024-03-29T11:58:24;97674.22;;;14.60
69186;BMP280;56298;49.246;9.410;2024-03-29T12:00:50;97683.31;;;14.57
69186;BMP280;56298;49.246;9.410;2024-03-29T12:03:17;97682.41;;;14.64
69186;BMP280;56298;49.246;9.410;2024-03-29T12:05:43;97678.31;;;14.52
69186;BMP280;56298;49.246;9.410;2024-03-29T12:08:09;97686.22;;;14.50
69186;BMP280;56298;49.246;9.410;2024-03-29T12:10:35;97683.19;;;14.44
69186;BMP280;56298;49.246;9.410;2024-03-29T12:13:02;97680.34;;;14.48
69186;BMP280;56298;49.246;9.410;2024-03-29T12:15:27;97688.56;;;14.51
69186;BMP280;56298;49.246;9.410;2024-03-29T12:18:00;97695.69;;;14.49
69186;BMP280;56298;49.246;9.410;2024-03-29T12:20:29;97703.88;;;14.32
69186;BMP280;56298;49.246;9.410;2024-03-29T12:22:55;97706.44;;;14.23
69186;BMP280;56298;49.246;9.410;2024-03-29T12:25:20;97708.75;;;14.24
69186;BMP280;56298;49.246;9.410;2024-03-29T12:27:49;97713.31;;;14.11
69186;BMP280;56298;49.246;9.410;2024-03-29T12:30:14;97722.63;;;13.97
69186;BMP280;56298;49.246;9.410;2024-03-29T12:32:40;97733.75;;;13.90
69186;BMP280;56298;49.246;9.410;2024-03-29T12:35:13;97730.69;;;13.84
69186;BMP280;56298;49.246;9.410;2024-03-29T12:37:47;97737.75;;;13.85
69186;BMP280;56298;49.246;9.410;2024-03-29T12:40:16;97744.59;;;14.01
69186;BMP280;56298;49.246;9.410;2024-03-29T12:42:43;97753.75;;;14.18
69186;BMP280;56298;49.246;9.410;2024-03-29T12:45:09;97749.78;;;14.43
69186;BMP280;56298;49.246;9.410;2024-03-29T12:47:36;97760.47;;;14.61
69186;BMP280;56298;49.246;9.410;2024-03-29T12:50:02;97765.59;;;14.82
69186;BMP280;56298;49.246;9.410;2024-03-29T12:52:36;97761.13;;;15.09
69186;BMP280;56298;49.246;9.410;2024-03-29T12:55:02;97754.72;;;15.32
69186;BMP280;56298;49.246;9.410;2024-03-29T12:57:27;97772.69;;;15.41
69186;BMP280;56298;49.246;9.410;2024-03-29T12:59:52;97776.88;;;15.65
69186;BMP280;56298;49.246;9.410;2024-03-29T13:02:18;97801.06;;;15.94
69186;BMP280;56298;49.246;9.410;2024-03-29T13:04:43;97811.44;;;16.07
69186;BMP280;56298;49.246;9.410;2024-03-29T13:07:09;97799.06;;;16.11
69186;BMP280;56298;49.246;9.410;2024-03-29T13:09:35;97799.41;;;16.14
69186;BMP280;56298;49.246;9.410;2024-03-29T13:12:00;97780.25;;;15.90
69186;BMP280;56298;49.246;9.410;2024-03-29T13:14:25;97756.31;;;16.00
69186;BMP280;56298;49.246;9.410;2024-03-29T13:16:50;97763.50;;;15.80
69186;BMP280;56298;49.246;9.410;2024-03-29T13:19:16;97780.75;;;15.68
69186;BMP280;56298;49.246;9.410;2024-03-29T13:21:41;97770.13;;;15.50
69186;BMP280;56298;49.246;9.410;2024-03-29T13:24:06;97771.16;;;15.56
69186;BMP280;56298;49.246;9.410;2024-03-29T13:26:32;97767.16;;;15.41
69186;BMP280;56298;49.246;9.410;2024-03-29T13:28:57;97776.75;;;15.16
69186;BMP280;56298;49.246;9.410;2024-03-29T13:31:22;97768.03;;;14.97
69186;BMP280;56298;49.246;9.410;2024-03-29T13:33:50;97749.94;;;14.76
69186;BMP280;56298;49.246;9.410;2024-03-29T13:36:15;97747.53;;;14.58
69186;BMP280;56298;49.246;9.410;2024-03-29T13:38:40;97713.97;;;14.19
69186;BMP280;56298;49.246;9.410;2024-03-29T13:41:05;97728.56;;;13.92
69186;BMP280;56298;49.246;9.410;2024-03-29T13:43:34;97728.16;;;13.70
69186;BMP280;56298;49.246;9.410;2024-03-29T13:46:03;97717.94;;;13.70
69186;BMP280;56298;49.246;9.410;2024-03-29T13:48:29;97710.13;;;13.65
69186;BMP280;56298;49.246;9.410;2024-03-29T13:50:54;97711.94;;;13.75
69186;BMP280;56298;49.246;9.410;2024-03-29T13:53:19;97712.66;;;13.79
69186;BMP280;56298;49.246;9.410;2024-03-29T13:55:45;97712.25;;;13.81
69186;BMP280;56298;49.246;9.410;2024-03-29T13:58:10;97708.22;;;13.86
69186;BMP280;56298;49.246;9.410;2024-03-29T14:00:35;97704.50;;;14.20
69186;BMP280;56298;49.246;9.410;2024-03-29T14:03:00;97712.75;;;14.64
69186;BMP280;56298;49.246;9.410;2024-03-29T14:05:27;97721.22;;;14.73
69186;BMP280;56298;49.246;9.410;2024-03-29T14:07:52;97713.72;;;14.74